sensor_id;sensor_type;location;lat;lon;timestamp;temperature;humidity
24412;DHT22;12544;46.760;15.942;2023-07-13T00:01:15;20.60;99.90
24412;DHT22;12544;46.760;15.942;2023-07-13T00:03:54;20.70;99.90
24412;DHT22;12544;46.760;15.942;2023-07-13T00:06:19;20.80;99.90
24412;DHT22;12544;46.760;15.942;2023-07-13T00:08:46;20.80;99.90
24412;DHT22;12544;46.760;15.942;2023-07-13T00:11:13;20.80;99.90
24412;DHT22;12544;46.760;15.942;2023-07-13T00:13:40;20.80;99.90
24412;DHT22;12544;46.760;15.942;2023-07-13T00:16:07;20.70;99.90
24412;DHT22;12544;46.760;15.942;2023-07-13T00:18:33;20.70;99.90
24412;DHT22;12544;46.760;15.942;2023-07-13T00:20:58;20.60;99.90
24412;DHT22;12544;46.760;15.942;2023-07-13T00:23:35;20.60;99.90
24412;DHT22;12544;46.760;15.942;2023-07-13T00:26:02;20.50;99.90
24412;DHT22;12544;46.760;15.942;2023-07-13T00:28:28;20.40;99.90
24412;DHT22;12544;46.760;15.942;2023-07-13T00:30:54;20.40;99.90
24412;DHT22;12544;46.760;15.942;2023-07-13T00:33:20;20.40;99.90
24412;DHT22;12544;46.760;15.942;2023-07-13T00:35:46;20.30;99.90
24412;DHT22;12544;46.760;15.942;2023-07-13T00:38:13;20.30;99.90
24412;DHT22;12544;46.760;15.942;2023-07-13T00:40:57;20.20;99.90
24412;DHT22;12544;46.760;15.942;2023-07-13T00:43:25;20.20;99.90
24412;DHT22;12544;46.760;15.942;2023-07-13T00:48:23;20.30;99.90
24412;DHT22;12544;46.760;15.942;2023-07-13T00:54:15;20.30;99.90
24412;DHT22;12544;46.760;15.942;2023-07-13T00:56:43;20.30;99.90
24412;DHT22;12544;46.760;15.942;2023-07-13T00:59:11;20.20;99.90
24412;DHT22;12544;46.760;15.942;2023-07-13T01:04:59;20.20;99.90
24412;DHT22;12544;46.760;15.942;2023-07-13T01:07:27;20.20;99.90
24412;DHT22;12544;46.760;15.942;2023-07-13T01:09:53;20.30;99.90
24412;DHT22;12544;46.760;15.942;2023-07-13T01:12:18;20.20;99.90
24412;DHT22;12544;46.760;15.942;2023-07-13T01:14:44;20.20;99.90
24412;DHT22;12544;46.760;15.942;2023-07-13T01:17:10;20.20;99.90
24412;DHT22;12544;46.760;15.942;2023-07-13T01:22:06;20.20;99.90
24412;DHT22;12544;46.760;15.942;2023-07-13T01:24:48;20.20;99.90
24412;DHT22;12544;46.760;15.942;2023-07-13T01:27:16;20.20;99.90
24412;DHT22;12544;46.760;15.942;2023-07-13T01:29:44;20.10;99.90
24412;DHT22;12544;46.760;15.942;2023-07-13T01:32:25;20.00;99.90
24412;DHT22;12544;46.760;15.942;2023-07-13T01:34:52;20.00;99.90
24412;DHT22;12544;46.760;15.942;2023-07-13T01:37:20;19.90;99.90
24412;DHT22;12544;46.760;15.942;2023-07-13T01:39:46;19.90;99.90
24412;DHT22;12544;46.760;15.942;2023-07-13T01:42:13;19.90;99.90
24412;DHT22;12544;46.760;15.942;2023-07-13T01:44:38;19.90;99.90
24412;DHT22;12544;46.760;15.942;2023-07-13T01:47:04;20.00;99.90
24412;DHT22;12544;46.760;15.942;2023-07-13T01:49:30;19.90;99.90
24412;DHT22;12544;46.760;15.942;2023-07-13T01:51:56;19.90;99.90
24412;DHT22;12544;46.760;15.942;2023-07-13T01:54:21;20.00;99.90
24412;DHT22;12544;46.760;15.942;2023-07-13T01:56:47;19.90;99.90
24412;DHT22;12544;46.760;15.942;2023-07-13T01:59:13;20.00;99.90
24412;DHT22;12544;46.760;15.942;2023-07-13T02:01:38;20.10;99.90
24412;DHT22;12544;46.760;15.942;2023-07-13T02:04:04;20.00;99.90
24412;DHT22;12544;46.760;15.942;2023-07-13T02:06:29;19.80;99.90
24412;DHT22;12544;46.760;15.942;2023-07-13T02:08:55;19.50;99.90
24412;DHT22;12544;46.760;15.942;2023-07-13T02:11:21;19.10;99.90
24412;DHT22;12544;46.760;15.942;2023-07-13T02:13:46;18.80;99.90
24412;DHT22;12544;46.760;15.942;2023-07-13T02:16:12;18.30;99.90
24412;DHT22;12544;46.760;15.942;2023-07-13T02:18:38;18.10;99.90
24412;DHT22;12544;46.760;15.942;2023-07-13T02:21:03;18.00;99.90
24412;DHT22;12544;46.760;15.942;2023-07-13T02:23:29;18.00;99.90
24412;DHT22;12544;46.760;15.942;2023-07-13T02:26:00;17.90;99.90
24412;DHT22;12544;46.760;15.942;2023-07-13T02:28:27;17.80;99.90
24412;DHT22;12544;46.760;15.942;2023-07-13T02:30:53;17.80;99.90
24412;DHT22;12544;46.760;15.942;2023-07-13T02:33:19;17.80;99.90
24412;DHT22;12544;46.760;15.942;2023-07-13T02:35:44;17.80;99.90
24412;DHT22;12544;46.760;15.942;2023-07-13T02:38:10;17.80;99.90
24412;DHT22;12544;46.760;15.942;2023-07-13T02:40:36;17.90;99.90
24412;DHT22;12544;46.760;15.942;2023-07-13T02:43:02;17.90;99.90
24412;DHT22;12544;46.760;15.942;2023-07-13T02:45:28;17.90;99.90
24412;DHT22;12544;46.760;15.942;2023-07-13T02:47:54;17.80;99.90
24412;DHT22;12544;46.760;15.942;2023-07-13T02:50:20;17.80;99.90
24412;DHT22;12544;46.760;15.942;2023-07-13T02:52:46;17.80;99.90
24412;DHT22;12544;46.760;15.942;2023-07-13T02:55:11;17.80;99.90
24412;DHT22;12544;46.760;15.942;2023-07-13T02:57:37;17.80;99.90
24412;DHT22;12544;46.760;15.942;2023-07-13T03:00:08;17.90;99.90
24412;DHT22;12544;46.760;15.942;2023-07-13T03:02:34;17.90;99.90
24412;DHT22;12544;46.760;15.942;2023-07-13T03:05:00;17.80;99.90
24412;DHT22;12544;46.760;15.942;2023-07-13T03:07:26;17.80;99.90
24412;DHT22;12544;46.760;15.942;2023-07-13T03:09:58;17.80;99.90
24412;DHT22;12544;46.760;15.942;2023-07-13T03:12:24;17.80;99.90
24412;DHT22;12544;46.760;15.942;2023-07-13T03:14:50;17.80;99.90
24412;DHT22;12544;46.760;15.942;2023-07-13T03:17:15;17.80;99.90
24412;DHT22;12544;46.760;15.942;2023-07-13T03:19:45;17.90;99.90
24412;DHT22;12544;46.760;15.942;2023-07-13T03:22:15;18.00;99.90
24412;DHT22;12544;46.760;15.942;2023-07-13T03:24:41;18.00;99.90
24412;DHT22;12544;46.760;15.942;2023-07-13T03:27:07;18.20;99.90
24412;DHT22;12544;46.760;15.942;2023-07-13T03:29:32;18.30;99.90
24412;DHT22;12544;46.760;15.942;2023-07-13T03:31:59;18.30;99.90
24412;DHT22;12544;46.760;15.942;2023-07-13T03:34:25;18.30;99.90
24412;DHT22;12544;46.760;15.942;2023-07-13T03:36:53;18.30;99.90
24412;DHT22;12544;46.760;15.942;2023-07-13T03:39:18;18.30;99.90
24412;DHT22;12544;46.760;15.942;2023-07-13T03:41:44;18.20;99.90
24412;DHT22;12544;46.760;15.942;2023-07-13T03:44:13;18.20;99.90
24412;DHT22;12544;46.760;15.942;2023-07-13T03:46:39;18.00;99.90
24412;DHT22;12544;46.760;15.942;2023-07-13T03:49:05;18.00;99.90
24412;DHT22;12544;46.760;15.942;2023-07-13T03:51:31;17.90;99.90
24412;DHT22;12544;46.760;15.942;2023-07-13T03:53:57;17.90;99.90
24412;DHT22;12544;46.760;15.942;2023-07-13T03:56:23;17.90;99.90
24412;DHT22;12544;46.760;15.942;2023-07-13T03:58:49;17.90;99.90
24412;DHT22;12544;46.760;15.942;2023-07-13T04:01:17;17.90;99.90
24412;DHT22;12544;46.760;15.942;2023-07-13T04:03:43;18.00;99.90
24412;DHT22;12544;46.760;15.942;2023-07-13T04:06:31;18.00;99.90
24412;DHT22;12544;46.760;15.942;2023-07-13T04:09:00;18.10;99.90
24412;DHT22;12544;46.760;15.942;2023-07-13T04:11:28;18.00;99.90
24412;DHT22;12544;46.760;15.942;2023-07-13T04:13:54;18.10;99.90
24412;DHT22;12544;46.760;15.942;2023-07-13T04:16:20;18.10;99.90
24412;DHT22;12544;46.760;15.942;2023-07-13T04:18:46;18.10;99.90
24412;DHT22;12544;46.760;15.942;2023-07-13T04:21:13;18.30;99.90
24412;DHT22;12544;46.760;15.942;2023-07-13T04:23:39;18.30;99.90
24412;DHT22;12544;46.760;15.942;2023-07-13T04:29:24;18.30;99.90
24412;DHT22;12544;46.760;15.942;2023-07-13T04:31:50;18.40;99.90
24412;DHT22;12544;46.760;15.942;2023-07-13T04:34:16;18.30;99.90
24412;DHT22;12544;46.760;15.942;2023-07-13T04:36:42;18.30;99.90
24412;DHT22;12544;46.760;15.942;2023-07-13T04:39:07;18.40;99.90
24412;DHT22;12544;46.760;15.942;2023-07-13T04:41:34;18.40;99.90
24412;DHT22;12544;46.760;15.942;2023-07-13T04:43:59;18.40;99.90
24412;DHT22;12544;46.760;15.942;2023-07-13T04:46:25;18.40;99.90
24412;DHT22;12544;46.760;15.942;2023-07-13T04:49:07;18.50;99.90
24412;DHT22;12544;46.760;15.942;2023-07-13T04:51:33;18.50;99.90
24412;DHT22;12544;46.760;15.942;2023-07-13T04:53:58;18.50;99.90
24412;DHT22;12544;46.760;15.942;2023-07-13T04:56:24;18.50;99.90
24412;DHT22;12544;46.760;15.942;2023-07-13T04:58:50;18.60;99.90
24412;DHT22;12544;46.760;15.942;2023-07-13T05:01:17;18.60;99.90
24412;DHT22;12544;46.760;15.942;2023-07-13T05:03:43;18.60;99.90
24412;DHT22;12544;46.760;15.942;2023-07-13T05:06:08;18.60;99.90
24412;DHT22;12544;46.760;15.942;2023-07-13T05:08:39;18.70;99.90
24412;DHT22;12544;46.760;15.942;2023-07-13T05:11:05;18.70;99.90
24412;DHT22;12544;46.760;15.942;2023-07-13T05:13:32;18.70;99.90
24412;DHT22;12544;46.760;15.942;2023-07-13T05:16:03;18.80;99.90
24412;DHT22;12544;46.760;15.942;2023-07-13T05:18:31;18.70;99.90
24412;DHT22;12544;46.760;15.942;2023-07-13T05:21:02;18.70;99.90
24412;DHT22;12544;46.760;15.942;2023-07-13T05:23:29;18.70;99.90
24412;DHT22;12544;46.760;15.942;2023-07-13T05:25:55;18.70;99.90
24412;DHT22;12544;46.760;15.942;2023-07-13T05:28:21;18.70;99.90
24412;DHT22;12544;46.760;15.942;2023-07-13T05:30:48;18.80;99.90
24412;DHT22;12544;46.760;15.942;2023-07-13T05:33:14;18.90;99.90
24412;DHT22;12544;46.760;15.942;2023-07-13T05:35:40;18.90;99.90
24412;DHT22;12544;46.760;15.942;2023-07-13T05:38:06;19.00;99.90
24412;DHT22;12544;46.760;15.942;2023-07-13T05:40:31;19.10;99.90
24412;DHT22;12544;46.760;15.942;2023-07-13T05:42:57;19.10;99.90
24412;DHT22;12544;46.760;15.942;2023-07-13T05:45:25;19.20;99.90
24412;DHT22;12544;46.760;15.942;2023-07-13T05:47:55;19.20;99.90
24412;DHT22;12544;46.760;15.942;2023-07-13T05:50:20;19.30;99.90
24412;DHT22;12544;46.760;15.942;2023-07-13T05:52:46;19.30;99.90
24412;DHT22;12544;46.760;15.942;2023-07-13T05:55:12;19.50;99.90
24412;DHT22;12544;46.760;15.942;2023-07-13T05:57:38;19.50;99.90
24412;DHT22;12544;46.760;15.942;2023-07-13T06:00:04;19.60;99.90
24412;DHT22;12544;46.760;15.942;2023-07-13T06:02:30;19.70;99.90
24412;DHT22;12544;46.760;15.942;2023-07-13T06:04:55;19.70;99.90
24412;DHT22;12544;46.760;15.942;2023-07-13T06:07:21;19.70;99.90
24412;DHT22;12544;46.760;15.942;2023-07-13T06:09:47;19.80;99.90
24412;DHT22;12544;46.760;15.942;2023-07-13T06:12:12;19.80;99.90
24412;DHT22;12544;46.760;15.942;2023-07-13T06:14:55;19.80;99.90
24412;DHT22;12544;46.760;15.942;2023-07-13T06:17:21;19.80;99.90
24412;DHT22;12544;46.760;15.942;2023-07-13T06:19:46;19.90;99.90
24412;DHT22;12544;46.760;15.942;2023-07-13T06:22:12;20.00;99.90
24412;DHT22;12544;46.760;15.942;2023-07-13T06:24:44;20.00;99.90
24412;DHT22;12544;46.760;15.942;2023-07-13T06:27:09;20.10;99.90
24412;DHT22;12544;46.760;15.942;2023-07-13T06:29:35;20.10;99.90
24412;DHT22;12544;46.760;15.942;2023-07-13T06:32:01;20.10;99.90
24412;DHT22;12544;46.760;15.942;2023-07-13T06:34:28;20.20;99.90
24412;DHT22;12544;46.760;15.942;2023-07-13T06:36:53;20.30;99.90
24412;DHT22;12544;46.760;15.942;2023-07-13T06:39:19;20.30;99.90
24412;DHT22;12544;46.760;15.942;2023-07-13T06:41:44;20.40;99.90
24412;DHT22;12544;46.760;15.942;2023-07-13T06:44:10;20.50;99.90
24412;DHT22;12544;46.760;15.942;2023-07-13T06:46:35;20.50;99.90
24412;DHT22;12544;46.760;15.942;2023-07-13T06:49:01;20.50;99.90
24412;DHT22;12544;46.760;15.942;2023-07-13T06:51:27;20.50;99.90
24412;DHT22;12544;46.760;15.942;2023-07-13T06:53:52;20.60;99.90
24412;DHT22;12544;46.760;15.942;2023-07-13T06:56:18;20.70;99.90
24412;DHT22;12544;46.760;15.942;2023-07-13T06:59:05;20.70;99.90
24412;DHT22;12544;46.760;15.942;2023-07-13T07:01:31;20.70;99.90
24412;DHT22;12544;46.760;15.942;2023-07-13T07:03:56;20.70;99.90
24412;DHT22;12544;46.760;15.942;2023-07-13T07:06:23;20.80;99.90
24412;DHT22;12544;46.760;15.942;2023-07-13T07:08:50;20.90;99.90
24412;DHT22;12544;46.760;15.942;2023-07-13T07:14:37;21.10;99.90
24412;DHT22;12544;46.760;15.942;2023-07-13T07:17:03;21.20;99.90
24412;DHT22;12544;46.760;15.942;2023-07-13T07:19:30;21.40;99.90
24412;DHT22;12544;46.760;15.942;2023-07-13T07:21:55;21.50;99.90
24412;DHT22;12544;46.760;15.942;2023-07-13T07:24:21;21.50;99.90
24412;DHT22;12544;46.760;15.942;2023-07-13T07:26:46;21.50;99.90
24412;DHT22;12544;46.760;15.942;2023-07-13T07:29:12;21.60;99.90
24412;DHT22;12544;46.760;15.942;2023-07-13T07:31:43;21.60;99.90
24412;DHT22;12544;46.760;15.942;2023-07-13T07:34:08;21.50;99.90
24412;DHT22;12544;46.760;15.942;2023-07-13T07:36:34;21.50;99.90
24412;DHT22;12544;46.760;15.942;2023-07-13T07:38:59;21.70;99.90
24412;DHT22;12544;46.760;15.942;2023-07-13T07:41:25;21.80;99.90
24412;DHT22;12544;46.760;15.942;2023-07-13T07:43:55;21.90;99.90
24412;DHT22;12544;46.760;15.942;2023-07-13T07:46:20;22.00;99.90
24412;DHT22;12544;46.760;15.942;2023-07-13T07:48:46;22.20;99.90
24412;DHT22;12544;46.760;15.942;2023-07-13T07:51:11;22.40;99.90
24412;DHT22;12544;46.760;15.942;2023-07-13T07:53:37;22.50;99.90
24412;DHT22;12544;46.760;15.942;2023-07-13T07:56:03;22.60;99.90
24412;DHT22;12544;46.760;15.942;2023-07-13T07:58:28;22.70;99.90
24412;DHT22;12544;46.760;15.942;2023-07-13T08:00:54;22.70;99.90
24412;DHT22;12544;46.760;15.942;2023-07-13T08:03:26;22.80;99.90
24412;DHT22;12544;46.760;15.942;2023-07-13T08:05:53;22.80;99.90
24412;DHT22;12544;46.760;15.942;2023-07-13T08:08:19;22.90;99.90
24412;DHT22;12544;46.760;15.942;2023-07-13T08:10:44;23.00;99.90
24412;DHT22;12544;46.760;15.942;2023-07-13T08:13:10;23.00;99.90
24412;DHT22;12544;46.760;15.942;2023-07-13T08:15:36;23.10;99.90
24412;DHT22;12544;46.760;15.942;2023-07-13T08:18:02;23.20;99.90
24412;DHT22;12544;46.760;15.942;2023-07-13T08:20:28;23.40;99.90
24412;DHT22;12544;46.760;15.942;2023-07-13T08:22:53;23.50;99.90
24412;DHT22;12544;46.760;15.942;2023-07-13T08:25:19;23.50;99.90
24412;DHT22;12544;46.760;15.942;2023-07-13T08:27:46;23.60;99.90
24412;DHT22;12544;46.760;15.942;2023-07-13T08:30:11;23.70;99.90
24412;DHT22;12544;46.760;15.942;2023-07-13T08:32:37;23.80;99.90
24412;DHT22;12544;46.760;15.942;2023-07-13T08:35:04;23.90;99.90
24412;DHT22;12544;46.760;15.942;2023-07-13T08:37:30;24.00;99.90
24412;DHT22;12544;46.760;15.942;2023-07-13T08:39:55;24.10;99.90
24412;DHT22;12544;46.760;15.942;2023-07-13T08:42:53;24.20;99.90
24412;DHT22;12544;46.760;15.942;2023-07-13T08:48:11;24.20;99.90
24412;DHT22;12544;46.760;15.942;2023-07-13T08:53:43;24.30;99.90
24412;DHT22;12544;46.760;15.942;2023-07-13T08:56:18;24.30;99.90
24412;DHT22;12544;46.760;15.942;2023-07-13T08:58:45;24.30;99.90
24412;DHT22;12544;46.760;15.942;2023-07-13T09:04:05;24.40;99.90
24412;DHT22;12544;46.760;15.942;2023-07-13T09:12:14;24.50;99.90
24412;DHT22;12544;46.760;15.942;2023-07-13T09:14:47;24.50;99.90
24412;DHT22;12544;46.760;15.942;2023-07-13T09:17:20;24.60;99.90
24412;DHT22;12544;46.760;15.942;2023-07-13T09:20:27;24.70;99.90
24412;DHT22;12544;46.760;15.942;2023-07-13T09:22:44;24.80;99.90
24412;DHT22;12544;46.760;15.942;2023-07-13T09:25:30;24.80;99.90
24412;DHT22;12544;46.760;15.942;2023-07-13T09:28:00;25.00;99.90
24412;DHT22;12544;46.760;15.942;2023-07-13T09:30:37;25.20;99.90
24412;DHT22;12544;46.760;15.942;2023-07-13T09:33:04;25.30;99.90
24412;DHT22;12544;46.760;15.942;2023-07-13T09:35:31;25.30;99.90
24412;DHT22;12544;46.760;15.942;2023-07-13T09:38:14;25.40;99.90
24412;DHT22;12544;46.760;15.942;2023-07-13T09:41:04;25.40;99.90
24412;DHT22;12544;46.760;15.942;2023-07-13T09:43:34;25.50;99.90
24412;DHT22;12544;46.760;15.942;2023-07-13T09:46:00;25.50;99.90
24412;DHT22;12544;46.760;15.942;2023-07-13T09:48:35;25.50;99.90
24412;DHT22;12544;46.760;15.942;2023-07-13T09:51:12;25.60;99.90
24412;DHT22;12544;46.760;15.942;2023-07-13T09:53:42;25.70;99.90
24412;DHT22;12544;46.760;15.942;2023-07-13T09:56:22;25.90;99.90
24412;DHT22;12544;46.760;15.942;2023-07-13T09:58:48;26.10;99.90
24412;DHT22;12544;46.760;15.942;2023-07-13T10:01:14;26.30;99.90
24412;DHT22;12544;46.760;15.942;2023-07-13T10:03:54;26.30;99.90
24412;DHT22;12544;46.760;15.942;2023-07-13T10:06:21;26.40;99.90
24412;DHT22;12544;46.760;15.942;2023-07-13T10:08:49;26.60;99.90
24412;DHT22;12544;46.760;15.942;2023-07-13T10:11:27;26.70;99.90
24412;DHT22;12544;46.760;15.942;2023-07-13T10:14:09;26.70;99.90
24412;DHT22;12544;46.760;15.942;2023-07-13T10:16:36;26.80;99.90
24412;DHT22;12544;46.760;15.942;2023-07-13T10:19:11;26.90;99.90
24412;DHT22;12544;46.760;15.942;2023-07-13T10:21:56;27.00;99.90
24412;DHT22;12544;46.760;15.942;2023-07-13T10:24:26;27.00;99.90
24412;DHT22;12544;46.760;15.942;2023-07-13T10:29:34;27.10;99.90
24412;DHT22;12544;46.760;15.942;2023-07-13T10:32:01;27.10;99.90
24412;DHT22;12544;46.760;15.942;2023-07-13T10:34:27;27.00;99.90
24412;DHT22;12544;46.760;15.942;2023-07-13T10:36:53;27.00;99.90
24412;DHT22;12544;46.760;15.942;2023-07-13T10:39:25;27.10;99.90
24412;DHT22;12544;46.760;15.942;2023-07-13T10:41:59;27.10;99.90
24412;DHT22;12544;46.760;15.942;2023-07-13T10:44:28;27.10;99.90
24412;DHT22;12544;46.760;15.942;2023-07-13T10:47:07;27.20;99.90
24412;DHT22;12544;46.760;15.942;2023-07-13T10:49:34;27.20;99.90
24412;DHT22;12544;46.760;15.942;2023-07-13T10:52:03;27.10;99.90
24412;DHT22;12544;46.760;15.942;2023-07-13T10:54:33;26.90;99.90
24412;DHT22;12544;46.760;15.942;2023-07-13T10:57:19;26.80;99.90
24412;DHT22;12544;46.760;15.942;2023-07-13T11:00:13;26.60;99.90
24412;DHT22;12544;46.760;15.942;2023-07-13T11:02:39;26.50;99.90
24412;DHT22;12544;46.760;15.942;2023-07-13T11:08:02;26.20;99.90
24412;DHT22;12544;46.760;15.942;2023-07-13T11:18:49;26.20;99.90
24412;DHT22;12544;46.760;15.942;2023-07-13T11:21:19;26.20;99.90
24412;DHT22;12544;46.760;15.942;2023-07-13T11:24:01;26.20;99.90
24412;DHT22;12544;46.760;15.942;2023-07-13T11:31:43;26.00;99.90
24412;DHT22;12544;46.760;15.942;2023-07-13T11:34:20;25.80;99.90
24412;DHT22;12544;46.760;15.942;2023-07-13T11:36:47;25.80;99.90
24412;DHT22;12544;46.760;15.942;2023-07-13T11:39:36;25.80;99.90
24412;DHT22;12544;46.760;15.942;2023-07-13T11:42:07;25.70;99.90
24412;DHT22;12544;46.760;15.942;2023-07-13T11:44:34;25.60;99.90
24412;DHT22;12544;46.760;15.942;2023-07-13T11:47:09;25.50;99.90
24412;DHT22;12544;46.760;15.942;2023-07-13T11:49:42;25.30;99.90
24412;DHT22;12544;46.760;15.942;2023-07-13T11:52:15;25.10;99.90
24412;DHT22;12544;46.760;15.942;2023-07-13T11:54:43;24.90;99.90
24412;DHT22;12544;46.760;15.942;2023-07-13T11:57:39;24.80;99.90
24412;DHT22;12544;46.760;15.942;2023-07-13T12:00:16;24.60;99.90
24412;DHT22;12544;46.760;15.942;2023-07-13T12:02:47;24.60;99.90
24412;DHT22;12544;46.760;15.942;2023-07-13T12:05:16;24.60;99.90
24412;DHT22;12544;46.760;15.942;2023-07-13T12:07:46;24.50;99.90
24412;DHT22;12544;46.760;15.942;2023-07-13T12:10:20;24.40;99.90
24412;DHT22;12544;46.760;15.942;2023-07-13T12:15:20;24.20;99.90
24412;DHT22;12544;46.760;15.942;2023-07-13T12:17:48;24.10;99.90
24412;DHT22;12544;46.760;15.942;2023-07-13T12:20:28;24.00;99.90
24412;DHT22;12544;46.760;15.942;2023-07-13T12:22:58;23.90;99.90
24412;DHT22;12544;46.760;15.942;2023-07-13T12:25:24;23.80;99.90
24412;DHT22;12544;46.760;15.942;2023-07-13T12:27:51;23.70;99.90
24412;DHT22;12544;46.760;15.942;2023-07-13T12:30:29;23.50;99.90
24412;DHT22;12544;46.760;15.942;2023-07-13T12:33:10;23.00;99.90
24412;DHT22;12544;46.760;15.942;2023-07-13T12:35:49;22.70;99.90
24412;DHT22;12544;46.760;15.942;2023-07-13T12:38:16;22.60;99.90
24412;DHT22;12544;46.760;15.942;2023-07-13T12:40:42;22.50;99.90
24412;DHT22;12544;46.760;15.942;2023-07-13T12:43:12;22.40;99.90
24412;DHT22;12544;46.760;15.942;2023-07-13T12:45:39;22.40;99.90
24412;DHT22;12544;46.760;15.942;2023-07-13T12:48:20;22.40;99.90
24412;DHT22;12544;46.760;15.942;2023-07-13T12:50:47;22.40;99.90
24412;DHT22;12544;46.760;15.942;2023-07-13T12:53:17;22.40;99.90
24412;DHT22;12544;46.760;15.942;2023-07-13T12:55:50;22.40;99.90
24412;DHT22;12544;46.760;15.942;2023-07-13T12:58:25;22.40;99.90
24412;DHT22;12544;46.760;15.942;2023-07-13T13:00:54;22.50;99.90
24412;DHT22;12544;46.760;15.942;2023-07-13T13:03:25;22.40;99.90
24412;DHT22;12544;46.760;15.942;2023-07-13T13:05:58;22.40;99.90
24412;DHT22;12544;46.760;15.942;2023-07-13T13:08:25;22.50;99.90
24412;DHT22;12544;46.760;15.942;2023-07-13T13:10:51;22.50;99.90
24412;DHT22;12544;46.760;15.942;2023-07-13T13:13:16;22.40;99.90
24412;DHT22;12544;46.760;15.942;2023-07-13T13:15:42;22.30;99.90
24412;DHT22;12544;46.760;15.942;2023-07-13T13:18:21;22.10;99.90
24412;DHT22;12544;46.760;15.942;2023-07-13T13:20:49;22.00;99.90
24412;DHT22;12544;46.760;15.942;2023-07-13T13:23:19;22.00;99.90
24412;DHT22;12544;46.760;15.942;2023-07-13T13:25:47;22.00;99.90
24412;DHT22;12544;46.760;15.942;2023-07-13T13:28:15;21.90;99.90
24412;DHT22;12544;46.760;15.942;2023-07-13T13:30:42;22.00;99.90
24412;DHT22;12544;46.760;15.942;2023-07-13T13:33:13;22.00;99.90
24412;DHT22;12544;46.760;15.942;2023-07-13T13:35:41;21.90;99.90
24412;DHT22;12544;46.760;15.942;2023-07-13T13:38:24;21.90;99.90
24412;DHT22;12544;46.760;15.942;2023-07-13T13:40:50;21.80;99.90
24412;DHT22;12544;46.760;15.942;2023-07-13T13:43:22;21.90;99.90
24412;DHT22;12544;46.760;15.942;2023-07-13T13:45:52;21.90;99.90
24412;DHT22;12544;46.760;15.942;2023-07-13T13:48:21;21.90;99.90
24412;DHT22;12544;46.760;15.942;2023-07-13T13:50:56;21.80;99.90
24412;DHT22;12544;46.760;15.942;2023-07-13T13:53:21;21.80;99.90
24412;DHT22;12544;46.760;15.942;2023-07-13T13:55:49;21.70;99.90
24412;DHT22;12544;46.760;15.942;2023-07-13T13:58:15;21.60;99.90
24412;DHT22;12544;46.760;15.942;2023-07-13T14:00:41;21.60;99.90
24412;DHT22;12544;46.760;15.942;2023-07-13T14:03:19;21.60;99.90
24412;DHT22;12544;46.760;15.942;2023-07-13T14:05:46;21.50;99.90
24412;DHT22;12544;46.760;15.942;2023-07-13T14:08:17;21.50;99.90
24412;DHT22;12544;46.760;15.942;2023-07-13T14:10:49;21.40;99.90
24412;DHT22;12544;46.760;15.942;2023-07-13T14:13:20;21.30;99.90
24412;DHT22;12544;46.760;15.942;2023-07-13T14:15:47;21.30;99.90
24412;DHT22;12544;46.760;15.942;2023-07-13T14:18:13;21.20;99.90
24412;DHT22;12544;46.760;15.942;2023-07-13T14:20:44;21.10;99.90
24412;DHT22;12544;46.760;15.942;2023-07-13T14:23:10;21.10;99.90
24412;DHT22;12544;46.760;15.942;2023-07-13T14:25:36;21.10;99.90
24412;DHT22;12544;46.760;15.942;2023-07-13T14:28:24;20.90;99.90
24412;DHT22;12544;46.760;15.942;2023-07-13T14:30:52;20.80;99.90
24412;DHT22;12544;46.760;15.942;2023-07-13T14:33:18;20.80;99.90
24412;DHT22;12544;46.760;15.942;2023-07-13T14:35:44;20.70;99.90
24412;DHT22;12544;46.760;15.942;2023-07-13T14:38:18;20.70;99.90
24412;DHT22;12544;46.760;15.942;2023-07-13T14:40:45;20.70;99.90
24412;DHT22;12544;46.760;15.942;2023-07-13T14:43:12;20.80;99.90
24412;DHT22;12544;46.760;15.942;2023-07-13T14:45:44;20.90;99.90
24412;DHT22;12544;46.760;15.942;2023-07-13T14:48:19;21.00;99.90
24412;DHT22;12544;46.760;15.942;2023-07-13T14:50:46;21.10;99.90
24412;DHT22;12544;46.760;15.942;2023-07-13T14:53:12;21.30;99.90
24412;DHT22;12544;46.760;15.942;2023-07-13T14:55:38;21.40;99.90
24412;DHT22;12544;46.760;15.942;2023-07-13T14:58:04;21.50;99.90
24412;DHT22;12544;46.760;15.942;2023-07-13T15:00:30;21.60;99.90
24412;DHT22;12544;46.760;15.942;2023-07-13T15:02:57;21.70;99.90
24412;DHT22;12544;46.760;15.942;2023-07-13T15:05:26;21.80;99.90
24412;DHT22;12544;46.760;15.942;2023-07-13T15:07:53;21.80;99.90
24412;DHT22;12544;46.760;15.942;2023-07-13T15:10:37;21.70;99.90
24412;DHT22;12544;46.760;15.942;2023-07-13T15:13:20;21.80;99.90
24412;DHT22;12544;46.760;15.942;2023-07-13T15:15:49;21.80;99.90
24412;DHT22;12544;46.760;15.942;2023-07-13T15:18:16;21.80;99.90
24412;DHT22;12544;46.760;15.942;2023-07-13T15:20:44;21.80;99.90
24412;DHT22;12544;46.760;15.942;2023-07-13T15:23:11;21.80;99.90
24412;DHT22;12544;46.760;15.942;2023-07-13T15:25:37;21.80;99.90
24412;DHT22;12544;46.760;15.942;2023-07-13T15:28:03;21.80;99.90
24412;DHT22;12544;46.760;15.942;2023-07-13T15:30:31;21.80;99.90
24412;DHT22;12544;46.760;15.942;2023-07-13T15:32:59;21.80;99.90
24412;DHT22;12544;46.760;15.942;2023-07-13T15:35:28;21.90;99.90
24412;DHT22;12544;46.760;15.942;2023-07-13T15:37:53;21.90;99.90
24412;DHT22;12544;46.760;15.942;2023-07-13T15:40:20;22.00;99.90
24412;DHT22;12544;46.760;15.942;2023-07-13T15:42:50;22.00;99.90
24412;DHT22;12544;46.760;15.942;2023-07-13T15:45:23;21.90;99.90
24412;DHT22;12544;46.760;15.942;2023-07-13T15:47:53;21.80;99.90
24412;DHT22;12544;46.760;15.942;2023-07-13T15:50:22;21.70;99.90
24412;DHT22;12544;46.760;15.942;2023-07-13T15:52:51;21.70;99.90
24412;DHT22;12544;46.760;15.942;2023-07-13T15:55:18;21.70;99.90
24412;DHT22;12544;46.760;15.942;2023-07-13T15:57:49;21.70;99.90
24412;DHT22;12544;46.760;15.942;2023-07-13T16:00:25;21.70;99.90
24412;DHT22;12544;46.760;15.942;2023-07-13T16:02:52;21.70;99.90
24412;DHT22;12544;46.760;15.942;2023-07-13T16:05:19;21.60;99.90
24412;DHT22;12544;46.760;15.942;2023-07-13T16:07:48;21.30;99.90
24412;DHT22;12544;46.760;15.942;2023-07-13T16:10:22;20.90;99.90
24412;DHT22;12544;46.760;15.942;2023-07-13T16:12:49;20.60;99.90
24412;DHT22;12544;46.760;15.942;2023-07-13T16:15:18;20.50;99.90
24412;DHT22;12544;46.760;15.942;2023-07-13T16:17:45;20.30;99.90
24412;DHT22;12544;46.760;15.942;2023-07-13T16:20:11;20.10;99.90